sensor_id;sensor_type;location;lat;lon;timestamp;P1;durP1;ratioP1;P2;durP2;ratioP2
17763;SDS011;22245;52.832;13.816;2024-03-17T00:01:06;11.83;;;2.30;;
17763;SDS011;22245;52.832;13.816;2024-03-17T00:04:27;10.17;;;2.00;;
17763;SDS011;22245;52.832;13.816;2024-03-17T00:07:47;13.20;;;2.40;;
17763;SDS011;22245;52.832;13.816;2024-03-17T00:11:08;12.70;;;2.53;;
17763;SDS011;22245;52.832;13.816;2024-03-17T00:14:29;9.73;;;2.60;;
17763;SDS011;22245;52.832;13.816;2024-03-17T00:17:50;11.13;;;2.40;;
17763;SDS011;22245;52.832;13.816;2024-03-17T00:21:10;14.97;;;2.10;;
17763;SDS011;22245;52.832;13.816;2024-03-17T00:24:32;8.80;;;1.87;;
17763;SDS011;22245;52.832;13.816;2024-03-17T00:27:53;14.37;;;2.10;;
17763;SDS011;22245;52.832;13.816;2024-03-17T00:31:18;13.97;;;2.20;;
17763;SDS011;22245;52.832;13.816;2024-03-17T00:34:37;14.40;;;2.30;;
17763;SDS011;22245;52.832;13.816;2024-03-17T00:37:58;15.20;;;2.77;;
17763;SDS011;22245;52.832;13.816;2024-03-17T00:41:19;17.17;;;2.17;;
17763;SDS011;22245;52.832;13.816;2024-03-17T00:44:41;7.37;;;1.90;;
17763;SDS011;22245;52.832;13.816;2024-03-17T00:48:03;11.83;;;1.87;;
17763;SDS011;22245;52.832;13.816;2024-03-17T00:51:25;9.83;;;2.37;;
17763;SDS011;22245;52.832;13.816;2024-03-17T00:54:46;12.50;;;2.57;;
17763;SDS011;22245;52.832;13.816;2024-03-17T00:58:07;17.47;;;2.97;;
17763;SDS011;22245;52.832;13.816;2024-03-17T01:01:27;12.70;;;2.23;;
17763;SDS011;22245;52.832;13.816;2024-03-17T01:04:49;15.27;;;2.07;;
17763;SDS011;22245;52.832;13.816;2024-03-17T01:08:08;13.67;;;2.27;;
17763;SDS011;22245;52.832;13.816;2024-03-17T01:11:29;16.73;;;2.57;;
17763;SDS011;22245;52.832;13.816;2024-03-17T01:14:50;14.07;;;2.00;;
17763;SDS011;22245;52.832;13.816;2024-03-17T01:18:11;9.43;;;1.97;;
17763;SDS011;22245;52.832;13.816;2024-03-17T01:21:33;8.97;;;2.27;;
17763;SDS011;22245;52.832;13.816;2024-03-17T01:24:53;9.13;;;2.00;;
17763;SDS011;22245;52.832;13.816;2024-03-17T01:28:14;11.23;;;2.27;;
17763;SDS011;22245;52.832;13.816;2024-03-17T01:31:34;16.27;;;2.03;;
17763;SDS011;22245;52.832;13.816;2024-03-17T01:34:55;16.63;;;2.50;;
17763;SDS011;22245;52.832;13.816;2024-03-17T01:38:17;12.60;;;2.60;;
17763;SDS011;22245;52.832;13.816;2024-03-17T01:41:38;12.00;;;2.10;;
17763;SDS011;22245;52.832;13.816;2024-03-17T01:44:59;13.37;;;2.00;;
17763;SDS011;22245;52.832;13.816;2024-03-17T01:48:20;17.93;;;2.83;;
17763;SDS011;22245;52.832;13.816;2024-03-17T01:51:39;12.80;;;2.27;;
17763;SDS011;22245;52.832;13.816;2024-03-17T01:55:03;11.67;;;2.27;;
17763;SDS011;22245;52.832;13.816;2024-03-17T01:58:23;11.37;;;2.30;;
17763;SDS011;22245;52.832;13.816;2024-03-17T02:01:45;12.03;;;1.73;;
17763;SDS011;22245;52.832;13.816;2024-03-17T02:05:06;8.83;;;2.50;;
17763;SDS011;22245;52.832;13.816;2024-03-17T02:08:26;12.30;;;2.13;;
17763;SDS011;22245;52.832;13.816;2024-03-17T02:11:48;13.40;;;2.20;;
17763;SDS011;22245;52.832;13.816;2024-03-17T02:15:08;16.20;;;2.27;;
17763;SDS011;22245;52.832;13.816;2024-03-17T02:18:29;12.27;;;2.20;;
17763;SDS011;22245;52.832;13.816;2024-03-17T02:21:49;14.67;;;2.30;;
17763;SDS011;22245;52.832;13.816;2024-03-17T02:25:11;10.87;;;1.93;;
17763;SDS011;22245;52.832;13.816;2024-03-17T02:28:37;14.70;;;2.80;;
17763;SDS011;22245;52.832;13.816;2024-03-17T02:31:59;13.53;;;2.43;;
17763;SDS011;22245;52.832;13.816;2024-03-17T02:35:18;12.40;;;2.40;;
17763;SDS011;22245;52.832;13.816;2024-03-17T02:38:39;9.10;;;2.13;;
17763;SDS011;22245;52.832;13.816;2024-03-17T02:42:19;13.70;;;2.67;;
17763;SDS011;22245;52.832;13.816;2024-03-17T02:45:40;16.20;;;2.20;;
17763;SDS011;22245;52.832;13.816;2024-03-17T02:49:00;11.63;;;2.30;;
17763;SDS011;22245;52.832;13.816;2024-03-17T02:52:21;18.93;;;2.73;;
17763;SDS011;22245;52.832;13.816;2024-03-17T02:55:42;9.93;;;2.10;;
17763;SDS011;22245;52.832;13.816;2024-03-17T02:59:04;13.80;;;2.43;;
17763;SDS011;22245;52.832;13.816;2024-03-17T03:02:25;11.50;;;2.10;;
17763;SDS011;22245;52.832;13.816;2024-03-17T03:05:46;14.30;;;2.93;;
17763;SDS011;22245;52.832;13.816;2024-03-17T03:09:08;11.67;;;1.97;;
17763;SDS011;22245;52.832;13.816;2024-03-17T03:12:32;9.40;;;2.17;;
17763;SDS011;22245;52.832;13.816;2024-03-17T03:15:54;13.47;;;2.30;;
17763;SDS011;22245;52.832;13.816;2024-03-17T03:19:15;16.87;;;2.10;;
17763;SDS011;22245;52.832;13.816;2024-03-17T03:22:35;7.77;;;2.03;;
17763;SDS011;22245;52.832;13.816;2024-03-17T03:25:56;15.43;;;2.63;;
17763;SDS011;22245;52.832;13.816;2024-03-17T03:29:17;11.30;;;1.80;;
17763;SDS011;22245;52.832;13.816;2024-03-17T03:32:40;7.27;;;2.10;;
17763;SDS011;22245;52.832;13.816;2024-03-17T03:36:06;17.27;;;2.20;;
17763;SDS011;22245;52.832;13.816;2024-03-17T03:39:28;12.77;;;2.53;;
17763;SDS011;22245;52.832;13.816;2024-03-17T03:42:51;11.13;;;2.33;;
17763;SDS011;22245;52.832;13.816;2024-03-17T03:46:12;17.13;;;3.77;;
17763;SDS011;22245;52.832;13.816;2024-03-17T03:49:34;11.40;;;2.47;;
17763;SDS011;22245;52.832;13.816;2024-03-17T03:52:55;9.03;;;2.10;;
17763;SDS011;22245;52.832;13.816;2024-03-17T03:56:15;10.90;;;1.70;;
17763;SDS011;22245;52.832;13.816;2024-03-17T03:59:37;9.47;;;2.43;;
17763;SDS011;22245;52.832;13.816;2024-03-17T04:02:58;16.57;;;2.50;;
17763;SDS011;22245;52.832;13.816;2024-03-17T04:06:22;12.07;;;2.03;;
17763;SDS011;22245;52.832;13.816;2024-03-17T04:09:42;10.87;;;2.57;;
17763;SDS011;22245;52.832;13.816;2024-03-17T04:13:03;9.97;;;1.90;;
17763;SDS011;22245;52.832;13.816;2024-03-17T04:16:24;15.83;;;2.30;;
17763;SDS011;22245;52.832;13.816;2024-03-17T04:19:44;12.67;;;2.43;;
17763;SDS011;22245;52.832;13.816;2024-03-17T04:23:07;13.73;;;2.30;;
17763;SDS011;22245;52.832;13.816;2024-03-17T04:26:27;13.30;;;2.63;;
17763;SDS011;22245;52.832;13.816;2024-03-17T04:29:48;9.07;;;2.53;;
17763;SDS011;22245;52.832;13.816;2024-03-17T04:33:09;9.57;;;2.40;;
17763;SDS011;22245;52.832;13.816;2024-03-17T04:36:30;8.93;;;1.97;;
17763;SDS011;22245;52.832;13.816;2024-03-17T04:39:52;16.27;;;2.60;;
17763;SDS011;22245;52.832;13.816;2024-03-17T04:43:16;11.80;;;2.20;;
17763;SDS011;22245;52.832;13.816;2024-03-17T04:46:37;9.20;;;2.10;;
17763;SDS011;22245;52.832;13.816;2024-03-17T04:49:58;9.00;;;1.63;;
17763;SDS011;22245;52.832;13.816;2024-03-17T04:53:18;12.17;;;2.40;;
17763;SDS011;22245;52.832;13.816;2024-03-17T04:56:40;11.50;;;2.43;;
17763;SDS011;22245;52.832;13.816;2024-03-17T05:00:01;18.80;;;2.67;;
17763;SDS011;22245;52.832;13.816;2024-03-17T05:03:25;8.40;;;1.93;;
17763;SDS011;22245;52.832;13.816;2024-03-17T05:06:45;10.63;;;2.03;;
17763;SDS011;22245;52.832;13.816;2024-03-17T05:10:08;15.67;;;2.73;;
17763;SDS011;22245;52.832;13.816;2024-03-17T05:13:30;11.93;;;1.97;;
17763;SDS011;22245;52.832;13.816;2024-03-17T05:16:51;10.63;;;2.60;;
17763;SDS011;22245;52.832;13.816;2024-03-17T05:20:12;18.17;;;2.60;;
17763;SDS011;22245;52.832;13.816;2024-03-17T05:23:34;16.63;;;2.60;;
17763;SDS011;22245;52.832;13.816;2024-03-17T05:26:56;15.17;;;2.33;;
17763;SDS011;22245;52.832;13.816;2024-03-17T05:30:18;11.23;;;2.17;;
17763;SDS011;22245;52.832;13.816;2024-03-17T05:33:38;9.33;;;1.93;;
17763;SDS011;22245;52.832;13.816;2024-03-17T05:36:59;10.47;;;2.07;;
17763;SDS011;22245;52.832;13.816;2024-03-17T05:40:20;13.43;;;2.40;;
17763;SDS011;22245;52.832;13.816;2024-03-17T05:43:41;11.93;;;2.13;;
17763;SDS011;22245;52.832;13.816;2024-03-17T05:47:03;16.30;;;2.67;;
17763;SDS011;22245;52.832;13.816;2024-03-17T05:50:27;11.73;;;2.00;;
17763;SDS011;22245;52.832;13.816;2024-03-17T05:53:47;16.83;;;2.47;;
17763;SDS011;22245;52.832;13.816;2024-03-17T05:57:08;14.23;;;2.93;;
17763;SDS011;22245;52.832;13.816;2024-03-17T06:00:31;10.97;;;2.20;;
17763;SDS011;22245;52.832;13.816;2024-03-17T06:03:53;11.50;;;3.00;;
17763;SDS011;22245;52.832;13.816;2024-03-17T06:07:13;10.50;;;2.53;;
17763;SDS011;22245;52.832;13.816;2024-03-17T06:10:34;13.70;;;2.47;;
17763;SDS011;22245;52.832;13.816;2024-03-17T06:13:56;13.83;;;2.37;;
17763;SDS011;22245;52.832;13.816;2024-03-17T06:17:16;10.37;;;2.10;;
17763;SDS011;22245;52.832;13.816;2024-03-17T06:20:40;15.50;;;2.20;;
17763;SDS011;22245;52.832;13.816;2024-03-17T06:24:02;15.60;;;2.43;;
17763;SDS011;22245;52.832;13.816;2024-03-17T06:27:25;10.77;;;2.20;;
17763;SDS011;22245;52.832;13.816;2024-03-17T06:30:54;13.43;;;2.50;;
17763;SDS011;22245;52.832;13.816;2024-03-17T06:34:18;11.43;;;2.37;;
17763;SDS011;22245;52.832;13.816;2024-03-17T06:37:40;12.73;;;2.53;;
17763;SDS011;22245;52.832;13.816;2024-03-17T06:41:01;16.83;;;3.03;;
17763;SDS011;22245;52.832;13.816;2024-03-17T06:44:21;17.17;;;2.77;;
17763;SDS011;22245;52.832;13.816;2024-03-17T06:47:46;15.93;;;3.50;;
17763;SDS011;22245;52.832;13.816;2024-03-17T06:51:07;12.03;;;2.40;;
17763;SDS011;22245;52.832;13.816;2024-03-17T06:54:30;11.80;;;3.47;;
17763;SDS011;22245;52.832;13.816;2024-03-17T06:57:51;11.03;;;3.47;;
17763;SDS011;22245;52.832;13.816;2024-03-17T07:01:12;16.53;;;2.70;;
17763;SDS011;22245;52.832;13.816;2024-03-17T07:04:32;11.10;;;2.20;;
17763;SDS011;22245;52.832;13.816;2024-03-17T07:07:56;10.03;;;2.27;;
17763;SDS011;22245;52.832;13.816;2024-03-17T07:11:18;16.00;;;2.63;;
17763;SDS011;22245;52.832;13.816;2024-03-17T07:14:42;10.00;;;2.00;;
17763;SDS011;22245;52.832;13.816;2024-03-17T07:18:03;14.47;;;2.50;;
17763;SDS011;22245;52.832;13.816;2024-03-17T07:21:24;14.37;;;2.80;;
17763;SDS011;22245;52.832;13.816;2024-03-17T07:24:44;11.80;;;2.10;;
17763;SDS011;22245;52.832;13.816;2024-03-17T07:28:06;18.10;;;3.10;;
17763;SDS011;22245;52.832;13.816;2024-03-17T07:31:27;10.43;;;2.17;;
17763;SDS011;22245;52.832;13.816;2024-03-17T07:34:48;14.80;;;3.00;;
17763;SDS011;22245;52.832;13.816;2024-03-17T07:38:09;7.33;;;2.07;;
17763;SDS011;22245;52.832;13.816;2024-03-17T07:41:29;16.93;;;2.50;;
17763;SDS011;22245;52.832;13.816;2024-03-17T07:44:52;13.40;;;2.17;;
17763;SDS011;22245;52.832;13.816;2024-03-17T07:48:12;10.37;;;2.20;;
17763;SDS011;22245;52.832;13.816;2024-03-17T07:51:33;8.67;;;2.30;;
17763;SDS011;22245;52.832;13.816;2024-03-17T07:54:54;13.73;;;2.40;;
17763;SDS011;22245;52.832;13.816;2024-03-17T07:58:15;12.63;;;2.10;;
17763;SDS011;22245;52.832;13.816;2024-03-17T08:01:37;15.10;;;3.00;;
17763;SDS011;22245;52.832;13.816;2024-03-17T08:04:58;9.17;;;2.20;;
17763;SDS011;22245;52.832;13.816;2024-03-17T08:08:18;10.20;;;2.00;;
17763;SDS011;22245;52.832;13.816;2024-03-17T08:11:40;10.53;;;1.67;;
17763;SDS011;22245;52.832;13.816;2024-03-17T08:15:06;10.90;;;2.20;;
17763;SDS011;22245;52.832;13.816;2024-03-17T08:18:29;14.60;;;2.03;;
17763;SDS011;22245;52.832;13.816;2024-03-17T08:21:49;8.87;;;2.03;;
17763;SDS011;22245;52.832;13.816;2024-03-17T08:25:10;6.70;;;1.60;;
17763;SDS011;22245;52.832;13.816;2024-03-17T08:28:30;5.30;;;1.90;;
17763;SDS011;22245;52.832;13.816;2024-03-17T08:31:51;7.10;;;1.30;;
17763;SDS011;22245;52.832;13.816;2024-03-17T08:35:14;2.70;;;1.17;;
17763;SDS011;22245;52.832;13.816;2024-03-17T08:38:35;9.20;;;1.53;;
17763;SDS011;22245;52.832;13.816;2024-03-17T08:41:57;7.60;;;1.77;;
17763;SDS011;22245;52.832;13.816;2024-03-17T08:45:18;6.17;;;1.43;;
17763;SDS011;22245;52.832;13.816;2024-03-17T08:48:38;4.57;;;1.50;;
17763;SDS011;22245;52.832;13.816;2024-03-17T08:52:02;2.53;;;1.30;;
17763;SDS011;22245;52.832;13.816;2024-03-17T08:55:23;3.30;;;1.40;;
17763;SDS011;22245;52.832;13.816;2024-03-17T08:58:43;7.10;;;2.07;;
17763;SDS011;22245;52.832;13.816;2024-03-17T09:02:04;4.37;;;1.47;;
17763;SDS011;22245;52.832;13.816;2024-03-17T09:05:25;6.47;;;1.60;;
17763;SDS011;22245;52.832;13.816;2024-03-17T09:08:47;1.87;;;1.20;;
17763;SDS011;22245;52.832;13.816;2024-03-17T09:12:07;4.23;;;1.23;;
17763;SDS011;22245;52.832;13.816;2024-03-17T09:15:28;3.30;;;1.50;;
17763;SDS011;22245;52.832;13.816;2024-03-17T09:18:49;4.63;;;1.30;;
17763;SDS011;22245;52.832;13.816;2024-03-17T09:22:09;2.30;;;1.13;;
17763;SDS011;22245;52.832;13.816;2024-03-17T09:25:32;4.83;;;1.10;;
17763;SDS011;22245;52.832;13.816;2024-03-17T09:28:53;4.67;;;1.10;;
17763;SDS011;22245;52.832;13.816;2024-03-17T09:32:13;2.77;;;0.90;;
17763;SDS011;22245;52.832;13.816;2024-03-17T09:35:37;2.23;;;1.00;;
17763;SDS011;22245;52.832;13.816;2024-03-17T09:38:57;2.70;;;1.17;;
17763;SDS011;22245;52.832;13.816;2024-03-17T09:42:21;2.30;;;1.00;;
17763;SDS011;22245;52.832;13.816;2024-03-17T09:45:42;4.27;;;1.47;;
17763;SDS011;22245;52.832;13.816;2024-03-17T09:49:02;3.07;;;1.00;;
17763;SDS011;22245;52.832;13.816;2024-03-17T09:52:24;2.90;;;1.10;;
17763;SDS011;22245;52.832;13.816;2024-03-17T09:55:45;3.97;;;1.10;;
17763;SDS011;22245;52.832;13.816;2024-03-17T09:59:07;3.30;;;1.20;;
17763;SDS011;22245;52.832;13.816;2024-03-17T10:02:28;2.20;;;1.07;;
17763;SDS011;22245;52.832;13.816;2024-03-17T10:05:49;2.30;;;1.37;;
17763;SDS011;22245;52.832;13.816;2024-03-17T10:09:19;1.57;;;1.07;;
17763;SDS011;22245;52.832;13.816;2024-03-17T10:12:41;2.00;;;0.97;;
17763;SDS011;22245;52.832;13.816;2024-03-17T10:16:03;3.17;;;1.17;;
17763;SDS011;22245;52.832;13.816;2024-03-17T10:19:25;4.00;;;1.00;;
17763;SDS011;22245;52.832;13.816;2024-03-17T10:23:00;2.93;;;0.93;;
17763;SDS011;22245;52.832;13.816;2024-03-17T10:26:22;3.20;;;1.43;;
17763;SDS011;22245;52.832;13.816;2024-03-17T10:29:43;3.10;;;1.40;;
17763;SDS011;22245;52.832;13.816;2024-03-17T10:33:07;4.13;;;1.53;;
17763;SDS011;22245;52.832;13.816;2024-03-17T10:36:41;2.03;;;1.50;;
17763;SDS011;22245;52.832;13.816;2024-03-17T10:40:02;5.77;;;1.33;;
17763;SDS011;22245;52.832;13.816;2024-03-17T10:43:24;4.30;;;1.30;;
17763;SDS011;22245;52.832;13.816;2024-03-17T10:46:45;4.33;;;1.40;;
17763;SDS011;22245;52.832;13.816;2024-03-17T10:50:09;2.30;;;1.33;;
17763;SDS011;22245;52.832;13.816;2024-03-17T10:53:36;5.13;;;1.97;;
17763;SDS011;22245;52.832;13.816;2024-03-17T10:56:57;3.37;;;1.50;;
17763;SDS011;22245;52.832;13.816;2024-03-17T11:00:27;4.33;;;1.50;;
17763;SDS011;22245;52.832;13.816;2024-03-17T11:03:48;4.67;;;1.70;;
17763;SDS011;22245;52.832;13.816;2024-03-17T11:07:15;3.57;;;1.50;;
17763;SDS011;22245;52.832;13.816;2024-03-17T11:10:38;2.77;;;1.30;;
17763;SDS011;22245;52.832;13.816;2024-03-17T11:14:11;3.37;;;1.40;;
17763;SDS011;22245;52.832;13.816;2024-03-17T11:17:36;6.20;;;1.67;;
17763;SDS011;22245;52.832;13.816;2024-03-17T11:20:57;5.80;;;1.97;;
17763;SDS011;22245;52.832;13.816;2024-03-17T11:24:22;7.00;;;1.60;;
17763;SDS011;22245;52.832;13.816;2024-03-17T11:27:44;6.37;;;1.40;;
17763;SDS011;22245;52.832;13.816;2024-03-17T11:31:05;2.30;;;1.37;;
17763;SDS011;22245;52.832;13.816;2024-03-17T11:34:28;2.30;;;1.10;;
17763;SDS011;22245;52.832;13.816;2024-03-17T11:37:53;2.93;;;1.30;;
17763;SDS011;22245;52.832;13.816;2024-03-17T11:41:32;4.10;;;1.33;;
17763;SDS011;22245;52.832;13.816;2024-03-17T11:44:57;2.73;;;1.20;;
17763;SDS011;22245;52.832;13.816;2024-03-17T11:48:20;2.97;;;1.40;;
17763;SDS011;22245;52.832;13.816;2024-03-17T11:51:41;8.83;;;1.90;;
17763;SDS011;22245;52.832;13.816;2024-03-17T11:55:02;2.73;;;1.30;;
17763;SDS011;22245;52.832;13.816;2024-03-17T11:58:24;3.13;;;1.10;;
17763;SDS011;22245;52.832;13.816;2024-03-17T12:01:45;3.23;;;1.43;;
17763;SDS011;22245;52.832;13.816;2024-03-17T12:05:07;3.33;;;1.20;;
17763;SDS011;22245;52.832;13.816;2024-03-17T12:08:29;2.13;;;1.10;;
17763;SDS011;22245;52.832;13.816;2024-03-17T12:11:50;3.50;;;1.33;;
17763;SDS011;22245;52.832;13.816;2024-03-17T12:15:16;4.70;;;1.70;;
17763;SDS011;22245;52.832;13.816;2024-03-17T12:18:38;2.00;;;1.20;;
17763;SDS011;22245;52.832;13.816;2024-03-17T12:22:00;2.73;;;1.57;;
17763;SDS011;22245;52.832;13.816;2024-03-17T12:25:23;3.30;;;1.27;;
17763;SDS011;22245;52.832;13.816;2024-03-17T12:28:46;4.50;;;1.50;;
17763;SDS011;22245;52.832;13.816;2024-03-17T12:32:09;2.50;;;1.37;;
17763;SDS011;22245;52.832;13.816;2024-03-17T12:35:33;3.53;;;1.30;;
17763;SDS011;22245;52.832;13.816;2024-03-17T12:38:54;3.57;;;1.27;;
17763;SDS011;22245;52.832;13.816;2024-03-17T12:42:30;4.50;;;1.40;;
17763;SDS011;22245;52.832;13.816;2024-03-17T12:45:55;2.37;;;1.17;;
17763;SDS011;22245;52.832;13.816;2024-03-17T12:49:16;4.07;;;1.10;;
17763;SDS011;22245;52.832;13.816;2024-03-17T12:52:36;1.87;;;1.10;;
17763;SDS011;22245;52.832;13.816;2024-03-17T12:55:58;2.40;;;1.13;;
17763;SDS011;22245;52.832;13.816;2024-03-17T12:59:39;7.70;;;2.00;;
17763;SDS011;22245;52.832;13.816;2024-03-17T13:03:27;3.20;;;1.27;;
17763;SDS011;22245;52.832;13.816;2024-03-17T13:06:52;5.53;;;1.80;;
17763;SDS011;22245;52.832;13.816;2024-03-17T13:10:14;2.33;;;1.20;;
17763;SDS011;22245;52.832;13.816;2024-03-17T13:13:35;4.03;;;1.40;;
17763;SDS011;22245;52.832;13.816;2024-03-17T13:16:56;3.27;;;1.20;;
17763;SDS011;22245;52.832;13.816;2024-03-17T13:20:17;3.37;;;1.07;;
17763;SDS011;22245;52.832;13.816;2024-03-17T13:23:39;2.03;;;0.80;;
17763;SDS011;22245;52.832;13.816;2024-03-17T13:27:00;2.23;;;1.00;;
17763;SDS011;22245;52.832;13.816;2024-03-17T13:30:25;4.17;;;1.30;;
17763;SDS011;22245;52.832;13.816;2024-03-17T13:33:47;2.90;;;0.90;;
17763;SDS011;22245;52.832;13.816;2024-03-17T13:37:09;1.80;;;0.93;;
17763;SDS011;22245;52.832;13.816;2024-03-17T13:40:32;1.63;;;0.90;;
17763;SDS011;22245;52.832;13.816;2024-03-17T13:43:53;2.60;;;1.30;;
17763;SDS011;22245;52.832;13.816;2024-03-17T13:47:16;4.23;;;1.40;;
17763;SDS011;22245;52.832;13.816;2024-03-17T13:50:37;4.33;;;1.37;;
17763;SDS011;22245;52.832;13.816;2024-03-17T13:54:01;3.93;;;1.40;;
17763;SDS011;22245;52.832;13.816;2024-03-17T13:57:23;5.40;;;1.13;;
17763;SDS011;22245;52.832;13.816;2024-03-17T14:00:43;1.73;;;1.03;;
17763;SDS011;22245;52.832;13.816;2024-03-17T14:04:04;4.53;;;1.30;;
17763;SDS011;22245;52.832;13.816;2024-03-17T14:07:25;2.27;;;1.13;;
17763;SDS011;22245;52.832;13.816;2024-03-17T14:10:46;3.80;;;1.20;;
17763;SDS011;22245;52.832;13.816;2024-03-17T14:14:08;2.80;;;1.23;;
17763;SDS011;22245;52.832;13.816;2024-03-17T14:17:28;4.80;;;1.10;;
17763;SDS011;22245;52.832;13.816;2024-03-17T14:20:49;3.60;;;1.40;;
17763;SDS011;22245;52.832;13.816;2024-03-17T14:24:10;3.03;;;1.00;;
17763;SDS011;22245;52.832;13.816;2024-03-17T14:27:31;1.83;;;0.93;;
17763;SDS011;22245;52.832;13.816;2024-03-17T14:30:53;3.30;;;1.30;;
17763;SDS011;22245;52.832;13.816;2024-03-17T14:34:14;3.97;;;1.13;;
17763;SDS011;22245;52.832;13.816;2024-03-17T14:37:34;1.87;;;1.17;;
17763;SDS011;22245;52.832;13.816;2024-03-17T14:40:55;2.80;;;1.30;;
17763;SDS011;22245;52.832;13.816;2024-03-17T14:44:16;3.13;;;1.00;;
17763;SDS011;22245;52.832;13.816;2024-03-17T14:47:39;6.43;;;2.50;;
17763;SDS011;22245;52.832;13.816;2024-03-17T14:51:00;2.43;;;1.00;;
17763;SDS011;22245;52.832;13.816;2024-03-17T14:54:20;2.93;;;1.27;;
17763;SDS011;22245;52.832;13.816;2024-03-17T14:57:41;2.97;;;1.43;;
17763;SDS011;22245;52.832;13.816;2024-03-17T15:01:02;1.63;;;0.97;;
17763;SDS011;22245;52.832;13.816;2024-03-17T15:04:24;2.90;;;0.90;;
17763;SDS011;22245;52.832;13.816;2024-03-17T15:07:46;2.10;;;1.07;;
17763;SDS011;22245;52.832;13.816;2024-03-17T15:11:07;2.47;;;1.03;;
17763;SDS011;22245;52.832;13.816;2024-03-17T15:14:28;4.10;;;1.23;;
17763;SDS011;22245;52.832;13.816;2024-03-17T15:17:50;6.37;;;1.70;;
17763;SDS011;22245;52.832;13.816;2024-03-17T15:21:12;3.93;;;1.77;;
17763;SDS011;22245;52.832;13.816;2024-03-17T15:24:33;3.90;;;1.50;;
17763;SDS011;22245;52.832;13.816;2024-03-17T15:27:54;3.53;;;1.13;;
17763;SDS011;22245;52.832;13.816;2024-03-17T15:31:15;2.13;;;1.20;;
17763;SDS011;22245;52.832;13.816;2024-03-17T15:34:37;3.60;;;1.70;;
17763;SDS011;22245;52.832;13.816;2024-03-17T15:37:59;4.57;;;1.00;;
17763;SDS011;22245;52.832;13.816;2024-03-17T15:41:22;2.60;;;1.20;;
17763;SDS011;22245;52.832;13.816;2024-03-17T15:44:43;2.83;;;1.03;;
17763;SDS011;22245;52.832;13.816;2024-03-17T15:48:07;2.03;;;0.87;;
17763;SDS011;22245;52.832;13.816;2024-03-17T15:51:27;2.47;;;0.88;;
17763;SDS011;22245;52.832;13.816;2024-03-17T15:54:50;2.53;;;1.00;;
17763;SDS011;22245;52.832;13.816;2024-03-17T15:58:11;3.33;;;1.00;;
17763;SDS011;22245;52.832;13.816;2024-03-17T16:01:32;2.85;;;0.80;;
17763;SDS011;22245;52.832;13.816;2024-03-17T16:04:53;1.90;;;1.00;;
17763;SDS011;22245;52.832;13.816;2024-03-17T16:08:15;1.73;;;1.00;;
17763;SDS011;22245;52.832;13.816;2024-03-17T16:11:38;2.03;;;1.20;;
17763;SDS011;22245;52.832;13.816;2024-03-17T16:14:58;2.40;;;1.35;;
17763;SDS011;22245;52.832;13.816;2024-03-17T16:18:20;1.73;;;1.00;;
17763;SDS011;22245;52.832;13.816;2024-03-17T16:21:40;2.67;;;1.40;;
17763;SDS011;22245;52.832;13.816;2024-03-17T16:25:01;4.13;;;1.10;;
17763;SDS011;22245;52.832;13.816;2024-03-17T16:28:25;2.93;;;1.30;;
17763;SDS011;22245;52.832;13.816;2024-03-17T16:31:46;3.80;;;1.03;;
17763;SDS011;22245;52.832;13.816;2024-03-17T16:35:08;3.47;;;1.00;;
17763;SDS011;22245;52.832;13.816;2024-03-17T16:38:28;2.50;;;1.10;;
17763;SDS011;22245;52.832;13.816;2024-03-17T16:41:50;1.53;;;0.97;;
17763;SDS011;22245;52.832;13.816;2024-03-17T16:45:12;1.50;;;1.30;;
17763;SDS011;22245;52.832;13.816;2024-03-17T16:48:34;1.80;;;1.20;;
17763;SDS011;22245;52.832;13.816;2024-03-17T16:51:54;1.50;;;1.10;;
17763;SDS011;22245;52.832;13.816;2024-03-17T16:55:15;3.23;;;1.13;;
17763;SDS011;22245;52.832;13.816;2024-03-17T16:58:35;1.30;;;1.10;;
17763;SDS011;22245;52.832;13.816;2024-03-17T17:01:58;2.73;;;1.30;;
17763;SDS011;22245;52.832;13.816;2024-03-17T17:05:18;2.27;;;1.30;;
17763;SDS011;22245;52.832;13.816;2024-03-17T17:08:39;2.47;;;1.10;;
17763;SDS011;22245;52.832;13.816;2024-03-17T17:12:00;2.37;;;1.30;;
17763;SDS011;22245;52.832;13.816;2024-03-17T17:15:20;3.53;;;1.40;;
17763;SDS011;22245;52.832;13.816;2024-03-17T17:18:49;2.30;;;0.97;;
17763;SDS011;22245;52.832;13.816;2024-03-17T17:22:11;1.47;;;1.00;;
17763;SDS011;22245;52.832;13.816;2024-03-17T17:25:33;2.27;;;1.10;;
17763;SDS011;22245;52.832;13.816;2024-03-17T17:28:59;2.50;;;1.30;;
17763;SDS011;22245;52.832;13.816;2024-03-17T17:32:20;1.80;;;1.50;;
17763;SDS011;22245;52.832;13.816;2024-03-17T17:35:42;3.00;;;1.23;;
17763;SDS011;22245;52.832;13.816;2024-03-17T17:39:03;2.80;;;1.60;;
17763;SDS011;22245;52.832;13.816;2024-03-17T17:42:24;1.73;;;1.10;;
17763;SDS011;22245;52.832;13.816;2024-03-17T17:45:46;1.70;;;1.20;;
17763;SDS011;22245;52.832;13.816;2024-03-17T17:49:06;3.93;;;1.30;;
17763;SDS011;22245;52.832;13.816;2024-03-17T17:52:29;2.00;;;1.50;;
17763;SDS011;22245;52.832;13.816;2024-03-17T17:55:50;3.03;;;1.67;;
17763;SDS011;22245;52.832;13.816;2024-03-17T17:59:11;8.57;;;1.70;;
17763;SDS011;22245;52.832;13.816;2024-03-17T18:02:33;4.30;;;1.30;;
17763;SDS011;22245;52.832;13.816;2024-03-17T18:05:53;3.40;;;1.40;;
17763;SDS011;22245;52.832;13.816;2024-03-17T18:09:16;2.80;;;1.30;;
17763;SDS011;22245;52.832;13.816;2024-03-17T18:12:41;2.27;;;1.50;;
17763;SDS011;22245;52.832;13.816;2024-03-17T18:16:02;3.80;;;1.77;;
17763;SDS011;22245;52.832;13.816;2024-03-17T18:19:24;2.47;;;1.60;;
17763;SDS011;22245;52.832;13.816;2024-03-17T18:22:44;3.20;;;1.93;;
17763;SDS011;22245;52.832;13.816;2024-03-17T18:26:09;2.97;;;1.90;;
17763;SDS011;22245;52.832;13.816;2024-03-17T18:29:30;4.70;;;2.57;;
17763;SDS011;22245;52.832;13.816;2024-03-17T18:32:51;7.57;;;3.90;;
17763;SDS011;22245;52.832;13.816;2024-03-17T18:36:13;4.43;;;3.17;;
17763;SDS011;22245;52.832;13.816;2024-03-17T18:39:34;3.83;;;2.53;;
17763;SDS011;22245;52.832;13.816;2024-03-17T18:42:56;4.27;;;2.40;;
17763;SDS011;22245;52.832;13.816;2024-03-17T18:46:17;3.27;;;2.50;;
17763;SDS011;22245;52.832;13.816;2024-03-17T18:49:40;4.20;;;2.50;;
17763;SDS011;22245;52.832;13.816;2024-03-17T18:53:02;2.97;;;2.00;;
17763;SDS011;22245;52.832;13.816;2024-03-17T18:56:23;2.87;;;1.50;;
17763;SDS011;22245;52.832;13.816;2024-03-17T18:59:46;2.30;;;1.53;;
17763;SDS011;22245;52.832;13.816;2024-03-17T19:03:06;1.80;;;1.33;;
17763;SDS011;22245;52.832;13.816;2024-03-17T19:06:27;3.97;;;1.73;;
17763;SDS011;22245;52.832;13.816;2024-03-17T19:09:48;2.73;;;1.30;;
17763;SDS011;22245;52.832;13.816;2024-03-17T19:13:09;3.77;;;1.90;;
17763;SDS011;22245;52.832;13.816;2024-03-17T19:16:30;4.07;;;1.80;;
17763;SDS011;22245;52.832;13.816;2024-03-17T19:19:51;3.57;;;1.80;;
17763;SDS011;22245;52.832;13.816;2024-03-17T19:23:13;2.53;;;1.87;;
17763;SDS011;22245;52.832;13.816;2024-03-17T19:26:34;2.23;;;1.50;;
17763;SDS011;22245;52.832;13.816;2024-03-17T19:29:55;3.93;;;1.70;;
17763;SDS011;22245;52.832;13.816;2024-03-17T19:33:17;3.10;;;1.93;;
17763;SDS011;22245;52.832;13.816;2024-03-17T19:36:39;3.17;;;2.10;;
17763;SDS011;22245;52.832;13.816;2024-03-17T19:39:59;2.07;;;1.60;;
17763;SDS011;22245;52.832;13.816;2024-03-17T19:43:20;3.83;;;2.10;;
17763;SDS011;22245;52.832;13.816;2024-03-17T19:46:41;3.30;;;1.87;;
17763;SDS011;22245;52.832;13.816;2024-03-17T19:50:03;4.07;;;2.27;;
17763;SDS011;22245;52.832;13.816;2024-03-17T19:53:25;3.27;;;2.00;;